Parks, Louisiana
Current Conditions -  °F | °C
As of 1:53 AM on Wednesday 22 Oct 2014 (Local Time) from KLFT Reporting Station
Clear Clear  
Wind Chill: 62°   Ceiling: Unl
Heat Index: 62°   Visibility: 10mi
Dew Point: 59°   Wind: 3mph
Humidity: 90%   Direction: 50°NE
Pressure: 30.03"   Gusts: NA
Location:  30.2235°N, 91.7772°W
Report Text: KLFT 220653Z AUTO 05003KT 10SM CLR 17/15 A3003 RMK AO2 SLP170 T01670150
Loading
Personal Weather Stations






























Interactive Weather Map
Tropical Storm Tracking
New forecast layout! Learn more

10-Day Weather Forecast

Advertisements
Track Severe Weather on mobile